createdAt,value
2023-02-11T00:00:23.972Z,93.69
2023-02-11T00:01:24.046Z,96.51
2023-02-11T00:02:24.042Z,95.74
2023-02-11T00:03:24.076Z,94.59
2023-02-11T00:04:24.039Z,94.78
2023-02-11T00:05:24.027Z,94.03
2023-02-11T00:06:24.016Z,93.43
2023-02-11T00:07:24.017Z,94.68
2023-02-11T00:08:24.043Z,94.73
2023-02-11T00:09:24.039Z,95.56
2023-02-11T00:10:24.028Z,96.15
2023-02-11T00:11:24.078Z,95.55
2023-02-11T00:12:24.066Z,95.25
2023-02-11T00:13:24.055Z,96.42
2023-02-11T00:14:24.061Z,94.57
2023-02-11T00:15:24.061Z,94.95
2023-02-11T00:16:24.097Z,93.81
2023-02-11T00:17:24.079Z,92.55
2023-02-11T00:18:24.082Z,92.42
2023-02-11T00:19:24.109Z,92.11
2023-02-11T00:20:24.094Z,92.34
2023-02-11T00:21:24.127Z,92.17
2023-02-11T00:22:24.127Z,93.05
2023-02-11T00:23:24.107Z,94.51
2023-02-11T00:24:24.135Z,94.97
2023-02-11T00:25:24.133Z,95.03
2023-02-11T00:26:24.167Z,93.89
2023-02-11T00:27:24.126Z,94.29
2023-02-11T00:28:24.157Z,94.17
2023-02-11T00:29:24.091Z,95.17
2023-02-11T00:30:24.142Z,95.27
2023-02-11T00:31:24.329Z,95.08
2023-02-11T00:32:24.117Z,95.13
2023-02-11T00:33:24.105Z,95.21
2023-02-11T00:34:24.116Z,94.92
2023-02-11T00:35:24.085Z,95.37
2023-02-11T00:36:24.135Z,94.56
2023-02-11T00:37:24.099Z,97.18
2023-02-11T00:38:24.107Z,95.26
2023-02-11T00:39:24.093Z,94.98
2023-02-11T00:40:24.090Z,94.28
2023-02-11T00:41:24.120Z,94.57
2023-02-11T00:42:24.104Z,93.66
2023-02-11T00:43:24.112Z,94.91
2023-02-11T00:44:24.101Z,94.01
2023-02-11T00:45:24.103Z,92.93
2023-02-11T00:46:24.167Z,92.73
2023-02-11T00:47:24.144Z,91.63
2023-02-11T00:48:24.117Z,92.50
2023-02-11T00:49:24.115Z,93.87
2023-02-11T00:50:24.119Z,92.04
2023-02-11T00:51:24.116Z,92.64
2023-02-11T00:52:24.097Z,93.06
2023-02-11T00:53:24.138Z,92.93
2023-02-11T00:54:24.150Z,92.69
2023-02-11T00:55:24.111Z,92.47
2023-02-11T00:56:24.154Z,91.65
2023-02-11T00:57:24.133Z,92.35
2023-02-11T00:58:24.141Z,94.18
2023-02-11T00:59:24.161Z,92.41
2023-02-11T01:00:24.173Z,92.30
2023-02-11T01:01:24.184Z,92.24
2023-02-11T01:02:24.160Z,92.52
2023-02-11T01:03:24.146Z,92.54
2023-02-11T01:04:24.184Z,91.47
2023-02-11T01:05:24.248Z,92.27
2023-02-11T01:06:24.141Z,93.25
2023-02-11T01:07:24.152Z,94.21
2023-02-11T01:08:24.159Z,92.83
2023-02-11T01:09:24.137Z,92.25
2023-02-11T01:10:24.158Z,93.29
2023-02-11T01:11:24.179Z,93.26
2023-02-11T01:12:24.157Z,93.82
2023-02-11T01:13:24.169Z,92.40
2023-02-11T01:14:24.166Z,92.70
2023-02-11T01:15:24.161Z,92.69
2023-02-11T01:16:24.304Z,92.47
2023-02-11T01:17:24.193Z,91.78
2023-02-11T01:18:24.202Z,92.64
2023-02-11T01:19:24.162Z,91.53
2023-02-11T01:20:24.165Z,91.35
2023-02-11T01:21:24.184Z,90.81
2023-02-11T01:22:24.184Z,92.73
2023-02-11T01:23:24.142Z,92.26
2023-02-11T01:24:24.175Z,92.79
2023-02-11T01:25:24.202Z,92.89
2023-02-11T01:26:24.213Z,91.65
2023-02-11T01:27:24.156Z,91.49
2023-02-11T01:28:24.299Z,90.95
2023-02-11T01:29:24.158Z,92.64
2023-02-11T01:30:24.151Z,91.74
2023-02-11T01:31:24.236Z,91.78
2023-02-11T01:32:24.196Z,91.07
2023-02-11T01:33:24.188Z,90.31
2023-02-11T01:34:24.205Z,90.38
2023-02-11T01:35:24.196Z,92.03
2023-02-11T01:36:24.224Z,90.56
2023-02-11T01:37:24.218Z,91.64
2023-02-11T01:38:24.189Z,91.00
2023-02-11T01:39:24.208Z,91.11
2023-02-11T01:40:24.219Z,91.41
2023-02-11T01:41:24.185Z,92.01
2023-02-11T01:42:24.201Z,90.45
2023-02-11T01:43:24.190Z,91.13
2023-02-11T01:44:24.234Z,91.14
2023-02-11T01:45:24.218Z,90.10
2023-02-11T01:46:24.301Z,91.26
2023-02-11T01:47:24.268Z,89.02
2023-02-11T01:48:24.216Z,89.66
2023-02-11T01:49:24.312Z,89.76
2023-02-11T01:50:24.232Z,90.54
2023-02-11T01:51:24.300Z,90.31
2023-02-11T01:52:24.239Z,89.79
2023-02-11T01:53:24.246Z,89.36
2023-02-11T01:54:24.252Z,90.60
2023-02-11T01:55:24.260Z,90.58
2023-02-11T01:56:24.268Z,91.46
2023-02-11T01:57:24.254Z,91.32
2023-02-11T01:58:24.246Z,90.09
2023-02-11T01:59:24.275Z,88.63
2023-02-11T02:00:24.341Z,88.38
2023-02-11T02:01:24.386Z,88.34
2023-02-11T02:02:24.304Z,88.79
2023-02-11T02:03:24.334Z,88.89
2023-02-11T02:04:24.293Z,89.84
2023-02-11T02:05:24.336Z,90.27
2023-02-11T02:06:24.291Z,88.88
2023-02-11T02:07:24.356Z,89.82
2023-02-11T02:08:24.290Z,90.34
2023-02-11T02:09:24.296Z,88.44
2023-02-11T02:10:24.318Z,90.62
2023-02-11T02:11:24.309Z,89.18
2023-02-11T02:12:24.277Z,89.46
2023-02-11T02:13:24.324Z,90.25
2023-02-11T02:14:24.288Z,90.36
2023-02-11T02:15:24.278Z,90.16
2023-02-11T02:16:24.325Z,89.29
2023-02-11T02:17:24.272Z,90.16
2023-02-11T02:18:24.289Z,89.39
2023-02-11T02:19:24.263Z,89.06
2023-02-11T02:20:24.326Z,90.22
2023-02-11T02:21:24.294Z,89.62
2023-02-11T02:22:24.291Z,90.32
2023-02-11T02:23:24.319Z,89.88
2023-02-11T02:24:24.300Z,89.81
2023-02-11T02:25:24.324Z,90.09
2023-02-11T02:26:24.304Z,90.07
2023-02-11T02:27:24.333Z,89.88
2023-02-11T02:28:24.383Z,89.70
2023-02-11T02:29:24.341Z,89.70
2023-02-11T02:30:24.468Z,88.87
2023-02-11T02:31:24.386Z,89.37
2023-02-11T02:32:24.317Z,90.38
2023-02-11T02:33:24.423Z,90.82
2023-02-11T02:34:24.320Z,90.78
2023-02-11T02:35:24.341Z,90.37
2023-02-11T02:36:24.339Z,90.48
2023-02-11T02:37:24.340Z,91.29
2023-02-11T02:38:24.312Z,91.72
2023-02-11T02:39:24.330Z,91.82
2023-02-11T02:40:24.301Z,91.37
2023-02-11T02:41:24.367Z,91.16
2023-02-11T02:42:24.333Z,90.61
2023-02-11T02:43:24.386Z,91.45
2023-02-11T02:44:24.346Z,90.51
2023-02-11T02:45:24.309Z,91.64
2023-02-11T02:46:24.395Z,90.15
2023-02-11T02:47:24.357Z,89.57
2023-02-11T02:48:24.401Z,89.80
2023-02-11T02:49:24.314Z,89.61
2023-02-11T02:50:24.371Z,90.37
2023-02-11T02:51:24.374Z,89.56
2023-02-11T02:52:24.343Z,90.21
2023-02-11T02:53:24.317Z,89.74
2023-02-11T02:54:24.338Z,89.83
2023-02-11T02:55:24.376Z,91.00
2023-02-11T02:56:24.361Z,91.19
2023-02-11T02:57:24.342Z,89.79
2023-02-11T02:58:24.368Z,90.08
2023-02-11T02:59:24.376Z,91.20
2023-02-11T03:00:24.350Z,90.76
2023-02-11T03:01:24.362Z,90.27
2023-02-11T03:02:24.343Z,90.01
2023-02-11T03:03:24.386Z,90.20
2023-02-11T03:04:24.341Z,90.42
2023-02-11T03:05:24.332Z,91.35
2023-02-11T03:06:24.356Z,91.16
2023-02-11T03:07:24.337Z,91.54
2023-02-11T03:08:24.353Z,90.89
2023-02-11T03:09:24.356Z,89.69
2023-02-11T03:10:24.337Z,89.80
2023-02-11T03:11:24.356Z,89.79
2023-02-11T03:12:24.371Z,89.44
2023-02-11T03:13:24.353Z,89.27
2023-02-11T03:14:24.417Z,88.89
2023-02-11T03:15:24.353Z,90.53
2023-02-11T03:16:24.421Z,89.10
2023-02-11T03:17:24.378Z,90.39
2023-02-11T03:18:24.368Z,89.64
2023-02-11T03:19:24.372Z,89.39
2023-02-11T03:20:24.409Z,88.39
2023-02-11T03:21:24.398Z,88.39
2023-02-11T03:22:24.395Z,89.23
2023-02-11T03:23:24.406Z,88.88
2023-02-11T03:24:24.412Z,89.87
2023-02-11T03:25:24.383Z,90.01
2023-02-11T03:26:24.414Z,89.52
2023-02-11T03:27:24.402Z,90.71
2023-02-11T03:28:24.467Z,89.12
2023-02-11T03:29:24.421Z,88.90
2023-02-11T03:30:24.416Z,89.12
2023-02-11T03:31:24.638Z,88.64
2023-02-11T03:32:24.414Z,88.11
2023-02-11T03:33:24.440Z,88.89
2023-02-11T03:34:24.439Z,88.90
2023-02-11T03:35:24.453Z,89.48
2023-02-11T03:36:24.451Z,88.56
2023-02-11T03:37:24.449Z,89.03
2023-02-11T03:38:24.471Z,88.53
2023-02-11T03:39:24.437Z,88.76
2023-02-11T03:40:24.443Z,89.26
2023-02-11T03:41:24.471Z,88.49
2023-02-11T03:42:24.447Z,89.24
2023-02-11T03:43:24.463Z,88.57
2023-02-11T03:44:24.434Z,89.35
2023-02-11T03:45:24.474Z,89.50
2023-02-11T03:46:24.485Z,89.92
2023-02-11T03:47:24.465Z,89.59
2023-02-11T03:48:24.474Z,88.02
2023-02-11T03:49:24.485Z,88.83
2023-02-11T03:50:24.475Z,89.39
2023-02-11T03:51:24.494Z,89.73
2023-02-11T03:52:24.491Z,88.07
2023-02-11T03:53:24.496Z,89.61
2023-02-11T03:54:24.523Z,89.57
2023-02-11T03:55:24.504Z,87.65
2023-02-11T03:56:24.508Z,87.48
2023-02-11T03:57:24.497Z,88.04
2023-02-11T03:58:24.552Z,88.05
2023-02-11T03:59:24.549Z,90.21
2023-02-11T04:00:24.540Z,89.89
2023-02-11T04:01:24.601Z,88.93
2023-02-11T04:02:24.560Z,89.40
2023-02-11T04:03:24.600Z,87.95
2023-02-11T04:04:24.568Z,88.68
2023-02-11T04:05:24.554Z,88.19
2023-02-11T04:06:24.556Z,87.69
2023-02-11T04:07:24.580Z,88.36
2023-02-11T04:08:24.564Z,88.70
2023-02-11T04:09:24.579Z,88.46
2023-02-11T04:10:24.582Z,87.04
2023-02-11T04:12:24.622Z,88.06
2023-02-11T04:13:24.644Z,88.09
2023-02-11T04:14:24.680Z,87.64
2023-02-11T04:15:24.696Z,88.31
2023-02-11T04:16:24.850Z,87.88
2023-02-11T04:17:24.769Z,87.57
2023-02-11T04:18:24.775Z,88.16
2023-02-11T04:19:24.780Z,88.18
2023-02-11T04:20:24.784Z,87.89
2023-02-11T04:21:24.842Z,88.46
2023-02-11T04:22:24.829Z,89.92
2023-02-11T04:23:24.857Z,89.24
2023-02-11T04:24:24.853Z,88.06
2023-02-11T04:25:24.893Z,88.09
2023-02-11T04:26:24.926Z,87.23
2023-02-11T04:27:24.931Z,86.74
2023-02-11T04:28:24.954Z,85.68
2023-02-11T04:29:24.993Z,87.34
2023-02-11T04:30:25.011Z,87.32
2023-02-11T04:31:25.161Z,86.68
2023-02-11T04:32:25.072Z,86.97
2023-02-11T04:33:25.043Z,87.70
2023-02-11T04:35:25.065Z,88.19
2023-02-11T04:36:25.151Z,87.84
2023-02-11T04:37:25.126Z,88.35
2023-02-11T04:38:25.151Z,86.88
2023-02-11T04:39:25.168Z,87.35
2023-02-11T04:41:25.198Z,86.60
2023-02-11T04:44:25.277Z,86.31
2023-02-11T04:45:25.281Z,87.64
2023-02-11T04:46:25.364Z,87.30
2023-02-11T04:47:25.331Z,87.37
2023-02-11T04:48:25.362Z,86.58
2023-02-11T04:49:25.372Z,88.08
2023-02-11T04:50:25.392Z,87.43
2023-02-11T04:51:25.409Z,86.26
2023-02-11T04:52:25.443Z,87.19
2023-02-11T04:53:25.445Z,86.11
2023-02-11T04:54:25.494Z,86.59
2023-02-11T04:55:25.544Z,85.90
2023-02-11T04:56:25.545Z,85.35
2023-02-11T04:57:25.563Z,87.32
2023-02-11T04:58:25.576Z,85.20
2023-02-11T04:59:25.621Z,87.29
2023-02-11T05:00:25.605Z,85.87
2023-02-11T05:01:25.681Z,87.03
2023-02-11T05:02:25.662Z,86.71
2023-02-11T05:03:25.656Z,87.25
2023-02-11T05:04:25.740Z,86.77
2023-02-11T05:05:25.729Z,86.28
2023-02-11T05:06:25.731Z,86.60
2023-02-11T05:07:25.737Z,86.55
2023-02-11T05:08:25.755Z,86.38
2023-02-11T05:09:25.781Z,87.21
2023-02-11T05:10:25.773Z,85.80
2023-02-11T05:11:25.794Z,86.01
2023-02-11T05:13:25.841Z,86.85
2023-02-11T05:29:26.100Z,85.78
2023-02-11T05:30:26.199Z,84.06
2023-02-11T05:31:26.134Z,82.76
2023-02-11T05:32:26.125Z,84.30
2023-02-11T05:33:26.169Z,84.17
2023-02-11T05:34:26.137Z,86.09
2023-02-11T05:35:26.181Z,84.78
2023-02-11T05:36:26.229Z,84.60
2023-02-11T05:37:26.259Z,84.07
2023-02-11T05:38:26.240Z,84.48
2023-02-11T05:39:26.259Z,85.69
2023-02-11T05:40:26.252Z,84.71
2023-02-11T05:41:26.304Z,84.77
2023-02-11T05:42:26.315Z,83.79
2023-02-11T05:43:26.342Z,84.44
2023-02-11T05:44:26.335Z,84.91
2023-02-11T05:45:26.375Z,84.22
2023-02-11T05:46:26.469Z,84.71
2023-02-11T05:47:26.367Z,84.07
2023-02-11T05:48:26.418Z,84.27
2023-02-11T05:49:26.430Z,84.91
2023-02-11T05:50:26.419Z,83.96
2023-02-11T05:51:26.470Z,83.74
2023-02-11T05:52:26.482Z,84.04
2023-02-11T05:53:26.476Z,82.93
2023-02-11T05:54:26.508Z,83.26
2023-02-11T05:55:26.513Z,84.41
2023-02-11T05:56:26.542Z,82.80
2023-02-11T05:57:26.525Z,84.31
2023-02-11T05:58:26.531Z,81.50
2023-02-11T05:59:26.591Z,82.95
2023-02-11T06:00:26.580Z,83.42
2023-02-11T06:01:26.683Z,82.95
2023-02-11T06:02:26.718Z,82.54
2023-02-11T06:03:26.698Z,82.62
2023-02-11T06:04:26.629Z,83.79
2023-02-11T06:05:26.647Z,84.05
2023-02-11T06:06:26.684Z,82.94
2023-02-11T06:07:26.679Z,83.65
2023-02-11T06:08:26.702Z,83.49
2023-02-11T06:09:26.675Z,83.46
2023-02-11T06:10:26.746Z,82.97
2023-02-11T06:11:26.742Z,83.05
2023-02-11T06:12:26.754Z,82.84
2023-02-11T06:13:26.793Z,83.81
2023-02-11T06:14:26.764Z,82.94
2023-02-11T06:15:26.794Z,82.54
2023-02-11T06:16:26.863Z,83.18
2023-02-11T06:17:26.835Z,82.63
2023-02-11T06:18:26.837Z,84.20
2023-02-11T06:19:26.830Z,83.33
2023-02-11T06:20:26.845Z,83.11
2023-02-11T06:21:42.500Z,82.75
2023-02-11T06:22:27.857Z,82.98
2023-02-11T06:23:29.183Z,83.43
2023-02-11T06:24:48.087Z,84.76
2023-02-11T06:25:27.838Z,83.17
2023-02-11T06:26:26.801Z,83.46
2023-02-11T06:27:26.828Z,83.85
2023-02-11T06:28:26.903Z,84.27
2023-02-11T06:29:26.820Z,84.96
2023-02-11T06:30:26.796Z,84.20
2023-02-11T06:31:26.896Z,84.99
2023-02-11T06:32:44.459Z,85.29
2023-02-11T06:33:27.791Z,85.49
2023-02-11T06:34:26.753Z,85.37
2023-02-11T06:35:26.783Z,83.64
2023-02-11T06:36:26.747Z,84.93
2023-02-11T06:37:26.753Z,83.91
2023-02-11T06:38:26.722Z,84.41
2023-02-11T06:39:27.280Z,84.24
2023-02-11T06:40:26.694Z,86.15
2023-02-11T06:41:26.709Z,86.59
2023-02-11T06:42:26.725Z,84.59
2023-02-11T06:43:26.675Z,84.54
2023-02-11T06:44:26.726Z,84.86
2023-02-11T06:45:26.697Z,83.84
2023-02-11T06:46:26.789Z,84.23
2023-02-11T06:47:26.664Z,85.62
2023-02-11T06:48:26.689Z,84.28
2023-02-11T06:49:26.640Z,84.35
2023-02-11T06:50:26.624Z,84.06
2023-02-11T06:51:26.640Z,84.75
2023-02-11T06:52:26.662Z,84.59
2023-02-11T06:53:26.618Z,83.49
2023-02-11T06:54:26.618Z,84.69
2023-02-11T06:55:26.620Z,83.24
2023-02-11T06:56:26.601Z,82.18
2023-02-11T06:57:26.580Z,81.83
2023-02-11T06:58:26.557Z,82.89
2023-02-11T06:59:26.592Z,82.05
2023-02-11T07:00:27.279Z,84.11
2023-02-11T07:01:26.604Z,83.59
2023-02-11T07:02:26.596Z,83.02
2023-02-11T07:03:26.532Z,83.44
2023-02-11T07:04:26.535Z,81.15
2023-02-11T07:05:26.525Z,82.43
2023-02-11T07:06:26.538Z,82.19
2023-02-11T07:07:26.536Z,81.69
2023-02-11T07:08:26.561Z,80.33
2023-02-11T07:09:26.548Z,80.52
2023-02-11T07:10:26.556Z,81.64
2023-02-11T07:11:26.611Z,80.79
2023-02-11T07:12:26.590Z,80.78
2023-02-11T07:13:26.613Z,82.32
2023-02-11T07:14:26.634Z,82.08
2023-02-11T07:15:26.612Z,81.76
2023-02-11T07:16:26.733Z,83.22
2023-02-11T07:17:26.638Z,81.58
2023-02-11T07:18:26.689Z,80.92
2023-02-11T07:19:26.680Z,81.49
2023-02-11T07:20:26.737Z,81.09
2023-02-11T07:21:26.702Z,82.15
2023-02-11T07:22:26.689Z,83.23
2023-02-11T07:23:26.699Z,81.81
2023-02-11T07:24:26.741Z,81.79
2023-02-11T07:25:26.741Z,81.06
2023-02-11T07:26:26.780Z,80.67
2023-02-11T07:27:26.759Z,81.33
2023-02-11T07:28:26.822Z,80.08
2023-02-11T07:29:26.810Z,80.99
2023-02-11T07:30:26.805Z,82.91
2023-02-11T07:31:26.949Z,81.91
2023-02-11T07:32:26.825Z,83.00
2023-02-11T07:33:26.805Z,82.36
2023-02-11T07:34:26.813Z,81.96
2023-02-11T07:35:26.852Z,81.23
2023-02-11T07:36:26.853Z,80.32
2023-02-11T07:37:26.846Z,80.98
2023-02-11T07:38:26.834Z,81.84
2023-02-11T07:39:26.870Z,79.26
2023-02-11T07:40:26.908Z,81.43
2023-02-11T07:41:26.935Z,81.27
2023-02-11T07:42:26.884Z,80.91
2023-02-11T07:43:26.911Z,79.80
2023-02-11T07:44:26.921Z,81.05
2023-02-11T07:45:26.939Z,80.66
2023-02-11T07:46:27.063Z,81.18
2023-02-11T07:47:26.944Z,79.04
2023-02-11T07:48:26.975Z,79.44
2023-02-11T07:49:26.991Z,80.77
2023-02-11T07:50:26.993Z,80.69
2023-02-11T07:51:27.047Z,78.76
2023-02-11T07:52:27.780Z,79.36
2023-02-11T07:53:27.016Z,81.04
2023-02-11T07:54:27.019Z,79.55
2023-02-11T07:55:27.050Z,79.38
2023-02-11T07:56:27.088Z,81.09
2023-02-11T07:57:27.092Z,81.49
2023-02-11T07:58:27.115Z,79.27
2023-02-11T07:59:27.124Z,78.80
2023-02-11T08:00:27.286Z,78.82
2023-02-11T08:01:27.164Z,78.77
2023-02-11T08:02:27.188Z,78.45
2023-02-11T08:03:27.150Z,78.82
2023-02-11T08:04:27.160Z,80.13
2023-02-11T08:05:27.163Z,78.47
2023-02-11T08:06:27.216Z,77.74
2023-02-11T08:07:27.204Z,78.49
2023-02-11T08:08:27.203Z,80.52
2023-02-11T08:09:27.211Z,77.01
2023-02-11T08:10:27.322Z,78.22
2023-02-11T08:11:27.200Z,77.46
2023-02-11T08:12:27.160Z,79.26
2023-02-11T08:13:27.193Z,77.97
2023-02-11T08:14:27.177Z,77.41
2023-02-11T08:15:27.186Z,78.73
2023-02-11T08:16:27.280Z,79.46
2023-02-11T08:17:27.162Z,77.41
2023-02-11T08:18:27.163Z,79.10
2023-02-11T08:19:27.169Z,77.52
2023-02-11T08:20:27.198Z,77.80
2023-02-11T08:21:27.164Z,79.29
2023-02-11T08:22:27.170Z,79.10
2023-02-11T08:23:27.165Z,77.70
2023-02-11T08:24:27.169Z,77.72
2023-02-11T08:25:27.115Z,77.93
2023-02-11T08:26:27.154Z,77.88
2023-02-11T08:27:27.126Z,78.61
2023-02-11T08:28:27.155Z,79.45
2023-02-11T08:29:27.136Z,78.70
2023-02-11T08:31:27.243Z,78.28
2023-02-11T08:32:27.106Z,79.00
2023-02-11T08:33:27.092Z,79.24
2023-02-11T08:34:27.147Z,77.18
2023-02-11T08:35:27.122Z,77.77
2023-02-11T08:36:27.153Z,76.84
2023-02-11T08:37:27.103Z,76.98
2023-02-11T08:38:27.140Z,77.42
2023-02-11T08:39:27.093Z,78.57
2023-02-11T08:40:27.115Z,73.70
2023-02-11T08:41:27.114Z,74.82
2023-02-11T08:42:27.100Z,76.27
2023-02-11T08:43:27.091Z,76.72
2023-02-11T08:44:27.105Z,76.90
2023-02-11T08:45:27.097Z,75.05
2023-02-11T08:46:27.204Z,77.29
2023-02-11T08:47:27.122Z,75.54
2023-02-11T09:20:26.995Z,71.52
2023-02-11T09:21:27.010Z,71.76
2023-02-11T09:22:26.984Z,71.37
2023-02-11T09:23:26.998Z,71.14
2023-02-11T09:24:26.970Z,71.96
2023-02-11T09:25:26.975Z,71.56
2023-02-11T09:26:26.954Z,71.47
2023-02-11T09:27:26.932Z,70.69
2023-02-11T09:28:26.955Z,69.80
2023-02-11T09:29:26.949Z,70.02
2023-02-11T09:30:27.026Z,70.44
2023-02-11T09:31:27.145Z,69.91
2023-02-11T09:32:26.977Z,70.42
2023-02-11T09:33:26.918Z,71.10
2023-02-11T09:34:26.905Z,69.76
2023-02-11T09:35:26.935Z,70.12
2023-02-11T09:36:26.958Z,68.91
2023-02-11T09:37:26.950Z,68.81
2023-02-11T09:38:26.923Z,69.94
2023-02-11T09:39:26.934Z,68.50
2023-02-11T09:40:26.962Z,69.67
2023-02-11T09:41:26.922Z,68.45
2023-02-11T09:42:26.938Z,68.77
2023-02-11T09:43:26.929Z,69.46
2023-02-11T09:44:26.965Z,69.67
2023-02-11T09:45:26.923Z,68.44
2023-02-11T09:46:26.960Z,70.00
2023-02-11T09:47:26.972Z,68.57
2023-02-11T09:48:26.964Z,67.56
2023-02-11T09:49:26.922Z,66.67
2023-02-11T09:50:26.932Z,66.15
2023-02-11T09:51:26.948Z,68.08
2023-02-11T09:52:26.912Z,67.09
2023-02-11T09:53:26.901Z,66.20
2023-02-11T09:54:26.935Z,68.37
2023-02-11T09:55:26.894Z,67.76
2023-02-11T09:56:26.919Z,66.34
2023-02-11T09:57:29.157Z,67.64
2023-02-11T09:58:26.912Z,67.03
2023-02-11T09:59:26.916Z,66.90
2023-02-11T10:00:26.901Z,64.97
2023-02-11T10:01:26.932Z,66.34
2023-02-11T10:02:26.940Z,64.73
2023-02-11T10:03:26.894Z,63.98
2023-02-11T10:04:26.981Z,63.74
2023-02-11T10:05:26.930Z,61.66
2023-02-11T10:06:26.896Z,64.82
2023-02-11T10:07:26.966Z,61.66
2023-02-11T10:08:26.916Z,61.68
2023-02-11T10:09:26.898Z,61.84
2023-02-11T10:10:26.909Z,62.03
2023-02-11T10:11:31.849Z,62.42
2023-02-11T10:12:27.913Z,62.63
2023-02-11T10:13:26.908Z,63.03
2023-02-11T10:14:26.877Z,62.86
2023-02-11T10:15:26.934Z,62.93
2023-02-11T10:16:26.882Z,63.43
2023-02-11T10:17:26.842Z,63.39
2023-02-11T10:18:26.877Z,62.50
2023-02-11T10:19:26.892Z,63.15
2023-02-11T10:20:26.845Z,62.16
2023-02-11T10:21:26.858Z,62.46
2023-02-11T10:26:26.816Z,62.61
2023-02-11T10:27:26.817Z,63.15
2023-02-11T10:28:26.853Z,63.40
2023-02-11T10:29:26.809Z,62.27
2023-02-11T10:30:26.820Z,63.42
2023-02-11T10:31:26.901Z,64.22
2023-02-11T10:32:26.799Z,63.25
2023-02-11T10:33:26.766Z,61.56
2023-02-11T10:34:26.776Z,62.76
2023-02-11T10:35:26.740Z,63.43
2023-02-11T10:36:26.763Z,60.98
2023-02-11T10:37:26.754Z,62.43
2023-02-11T10:38:26.725Z,62.16
2023-02-11T10:39:26.775Z,60.73
2023-02-11T10:40:26.711Z,61.23
2023-02-11T10:41:26.717Z,61.79
2023-02-11T10:42:26.732Z,60.68
2023-02-11T10:43:26.721Z,60.82
2023-02-11T10:44:26.704Z,61.13
2023-02-11T10:45:26.668Z,61.03
2023-02-11T10:46:26.785Z,61.81
2023-02-11T10:47:26.651Z,61.28
2023-02-11T10:48:26.662Z,60.55
2023-02-11T10:49:26.683Z,61.41
2023-02-11T10:50:26.647Z,61.56
2023-02-11T10:51:26.654Z,61.37
2023-02-11T10:52:26.655Z,60.40
2023-02-11T10:53:26.608Z,61.50
2023-02-11T10:54:26.616Z,61.29
2023-02-11T10:55:26.592Z,60.01
2023-02-11T10:56:26.625Z,59.11
2023-02-11T10:57:26.708Z,58.66
2023-02-11T10:58:26.597Z,62.63
2023-02-11T10:59:26.567Z,62.01
2023-02-11T11:00:26.578Z,61.21
2023-02-11T11:01:26.589Z,59.37
2023-02-11T11:02:26.569Z,59.84
2023-02-11T11:03:26.535Z,61.11
2023-02-11T11:04:26.570Z,60.37
2023-02-11T11:05:26.542Z,62.05
2023-02-11T11:06:26.516Z,61.32
2023-02-11T11:07:26.514Z,61.02
2023-02-11T11:08:26.575Z,59.70
2023-02-11T11:09:26.506Z,60.44
2023-02-11T11:10:26.499Z,61.44
2023-02-11T11:11:26.544Z,60.88
2023-02-11T11:12:26.499Z,58.93
2023-02-11T11:13:26.503Z,60.24
2023-02-11T11:14:26.501Z,59.94
2023-02-11T11:15:26.501Z,58.73
2023-02-11T11:16:26.565Z,60.09
2023-02-11T11:17:26.517Z,60.47
2023-02-11T11:18:26.468Z,60.07
2023-02-11T11:19:26.458Z,60.77
2023-02-11T11:20:26.473Z,60.29
2023-02-11T11:21:26.465Z,59.77
2023-02-11T11:22:26.478Z,59.02
2023-02-11T11:23:26.461Z,58.58
2023-02-11T11:24:27.937Z,58.60
2023-02-11T11:25:27.351Z,58.49
2023-02-11T11:26:26.450Z,59.58
2023-02-11T11:27:26.487Z,57.16
2023-02-11T11:28:26.540Z,58.15
2023-02-11T11:29:26.429Z,58.76
2023-02-11T11:30:26.429Z,57.47
2023-02-11T11:31:26.573Z,58.10
2023-02-11T11:32:26.434Z,59.28
2023-02-11T11:33:26.412Z,59.19
2023-02-11T11:34:26.423Z,59.00
2023-02-11T11:35:26.443Z,57.30
2023-02-11T11:36:26.388Z,57.56
2023-02-11T11:37:26.433Z,58.73
2023-02-11T11:38:26.418Z,56.66
2023-02-11T11:39:26.430Z,57.71
2023-02-11T11:40:26.384Z,57.55
2023-02-11T11:41:26.394Z,58.80
2023-02-11T11:42:26.413Z,58.99
2023-02-11T11:43:26.427Z,58.00
2023-02-11T11:44:26.388Z,58.71
2023-02-11T11:45:26.394Z,58.28
2023-02-11T11:46:26.515Z,57.50
2023-02-11T11:47:26.395Z,58.09
2023-02-11T11:48:26.379Z,57.87
2023-02-11T11:49:26.346Z,58.06
2023-02-11T11:50:26.357Z,56.75
2023-02-11T11:51:26.371Z,57.29
2023-02-11T11:52:26.373Z,58.12
2023-02-11T11:53:26.330Z,57.30
2023-02-11T11:54:26.345Z,57.82
2023-02-11T11:55:26.334Z,57.44
2023-02-11T11:56:26.348Z,57.45
2023-02-11T11:57:26.351Z,56.06
2023-02-11T11:58:26.350Z,55.72
2023-02-11T11:59:26.378Z,56.47
2023-02-11T12:00:26.397Z,56.03
2023-02-11T12:01:26.356Z,56.69
2023-02-11T12:02:26.406Z,56.85
2023-02-11T12:03:26.448Z,56.70
2023-02-11T12:04:26.350Z,55.36
2023-02-11T12:05:26.294Z,55.39
2023-02-11T12:06:26.292Z,55.35
2023-02-11T12:07:26.347Z,55.00
2023-02-11T12:08:26.302Z,55.62
2023-02-11T12:09:26.284Z,55.88
2023-02-11T12:10:26.299Z,54.81
2023-02-11T12:11:26.301Z,53.89
2023-02-11T12:12:26.301Z,56.04
2023-02-11T12:13:26.290Z,54.81
2023-02-11T12:14:26.313Z,54.86
2023-02-11T12:15:26.310Z,53.66
2023-02-11T12:16:26.338Z,55.15
2023-02-11T12:17:26.282Z,53.88
2023-02-11T12:18:26.320Z,56.11
2023-02-11T12:19:26.284Z,53.85
2023-02-11T12:20:26.314Z,53.79
2023-02-11T12:21:26.297Z,54.49
2023-02-11T12:22:26.273Z,52.90
2023-02-11T12:23:26.275Z,52.77
2023-02-11T12:24:26.297Z,53.11
2023-02-11T12:25:26.294Z,53.01
2023-02-11T12:26:26.299Z,53.30
2023-02-11T12:27:26.302Z,52.47
2023-02-11T12:28:26.340Z,52.29
2023-02-11T12:29:26.313Z,52.65
2023-02-11T12:30:26.318Z,51.50
2023-02-11T12:31:26.457Z,53.96
2023-02-11T12:32:26.300Z,53.83
2023-02-11T12:33:26.287Z,53.15
2023-02-11T12:34:26.334Z,53.26
2023-02-11T12:35:26.311Z,51.67
2023-02-11T12:36:26.308Z,51.46
2023-02-11T12:37:26.318Z,50.34
2023-02-11T12:38:26.299Z,53.11
2023-02-11T12:39:26.314Z,52.47
2023-02-11T12:40:26.297Z,52.83
2023-02-11T12:41:26.290Z,52.18
2023-02-11T12:42:26.292Z,52.52
2023-02-11T12:43:26.311Z,52.44
2023-02-11T12:44:26.301Z,50.68
2023-02-11T12:45:26.391Z,50.47
2023-02-11T12:46:26.343Z,51.36
2023-02-11T12:47:26.343Z,51.73
2023-02-11T12:48:26.337Z,50.82
2023-02-11T12:49:26.337Z,51.77
2023-02-11T12:50:26.358Z,52.71
2023-02-11T12:51:26.409Z,52.54
2023-02-11T12:52:26.368Z,51.94
2023-02-11T12:53:26.376Z,50.93
2023-02-11T12:54:26.354Z,52.82
2023-02-11T12:55:26.377Z,51.84
2023-02-11T12:56:26.408Z,50.57
2023-02-11T12:57:26.411Z,51.34
2023-02-11T12:58:35.644Z,51.39
2023-02-11T12:59:27.422Z,51.61
2023-02-11T13:00:26.375Z,51.87
2023-02-11T13:01:26.485Z,52.18
2023-02-11T13:02:26.457Z,51.46
2023-02-11T13:03:26.385Z,51.24
2023-02-11T13:04:26.364Z,52.36
2023-02-11T13:05:26.374Z,49.97
2023-02-11T13:06:26.379Z,50.79
2023-02-11T13:07:26.341Z,52.25
2023-02-11T13:08:26.357Z,51.04
2023-02-11T13:09:26.324Z,51.35
2023-02-11T13:10:26.347Z,52.19
2023-02-11T13:11:26.327Z,51.38
2023-02-11T13:12:26.330Z,52.15
2023-02-11T13:13:26.329Z,50.52
2023-02-11T13:14:26.356Z,51.35
2023-02-11T13:15:26.291Z,50.82
2023-02-11T13:16:26.338Z,49.45
2023-02-11T13:17:26.265Z,51.53
2023-02-11T13:18:26.248Z,50.29
2023-02-11T13:19:26.263Z,52.31
2023-02-11T13:20:26.257Z,50.44
2023-02-11T13:21:26.231Z,50.99
2023-02-11T13:22:26.239Z,50.54
2023-02-11T13:23:26.215Z,50.71
2023-02-11T13:24:26.228Z,51.29
2023-02-11T13:25:26.196Z,51.03
2023-02-11T13:26:26.189Z,51.94
2023-02-11T13:27:26.243Z,52.03
2023-02-11T13:28:26.241Z,52.03
2023-02-11T13:29:26.209Z,52.17
2023-02-11T13:30:26.170Z,50.81
2023-02-11T13:31:26.285Z,49.89
2023-02-11T13:32:26.177Z,50.58
2023-02-11T13:33:26.179Z,51.83
2023-02-11T13:34:26.222Z,53.25
2023-02-11T13:35:26.212Z,51.71
2023-02-11T13:36:26.213Z,50.94
2023-02-11T13:37:26.268Z,50.37
2023-02-11T13:38:26.248Z,51.03
2023-02-11T13:39:26.255Z,51.05
2023-02-11T13:40:26.285Z,52.77
2023-02-11T13:41:26.298Z,51.52
2023-02-11T13:42:26.324Z,51.19
2023-02-11T13:43:26.312Z,50.96
2023-02-11T13:44:26.333Z,51.25
2023-02-11T13:45:26.333Z,51.35
2023-02-11T13:46:26.389Z,50.89
2023-02-11T13:47:26.343Z,49.69
2023-02-11T13:48:26.339Z,50.20
2023-02-11T13:49:26.381Z,51.13
2023-02-11T13:50:26.391Z,50.93